sensor_id;sensor_type;location;lat;lon;timestamp;temperature;humidity
40636;DHT22;26642;55.766;37.828;2022-09-02T20:00:34;15.30;68.70
40636;DHT22;26642;55.766;37.828;2022-09-02T20:04:21;15.00;69.80
40636;DHT22;26642;55.766;37.828;2022-09-02T20:06:47;15.20;71.00
40636;DHT22;26642;55.766;37.828;2022-09-02T20:14:28;15.30;70.80
40636;DHT22;26642;55.766;37.828;2022-09-02T20:16:57;15.40;71.30
40636;DHT22;26642;55.766;37.828;2022-09-02T20:19:25;15.50;71.10
40636;DHT22;26642;55.766;37.828;2022-09-02T20:21:51;15.60;71.60
40636;DHT22;26642;55.766;37.828;2022-09-02T20:24:25;15.70;71.90
40636;DHT22;26642;55.766;37.828;2022-09-02T20:29:43;15.80;71.60
40636;DHT22;26642;55.766;37.828;2022-09-02T20:38:36;16.00;70.10
40636;DHT22;26642;55.766;37.828;2022-09-02T20:41:37;16.00;70.00
40636;DHT22;26642;55.766;37.828;2022-09-02T20:55:43;16.30;69.30
40636;DHT22;26642;55.766;37.828;2022-09-02T21:01:08;16.30;68.60
40636;DHT22;26642;55.766;37.828;2022-09-02T21:03:56;16.30;68.40
40636;DHT22;26642;55.766;37.828;2022-09-02T21:06:32;16.40;68.20
40636;DHT22;26642;55.766;37.828;2022-09-02T21:09:16;16.40;68.10
40636;DHT22;26642;55.766;37.828;2022-09-02T21:11:54;16.40;68.00
40636;DHT22;26642;55.766;37.828;2022-09-02T21:14:27;16.30;67.70
40636;DHT22;26642;55.766;37.828;2022-09-02T21:17:04;16.40;67.80
40636;DHT22;26642;55.766;37.828;2022-09-02T21:19:35;16.40;67.70
40636;DHT22;26642;55.766;37.828;2022-09-02T21:22:25;16.40;67.60
40636;DHT22;26642;55.766;37.828;2022-09-02T21:27:31;16.40;67.70
40636;DHT22;26642;55.766;37.828;2022-09-02T21:30:07;16.40;67.80
40636;DHT22;26642;55.766;37.828;2022-09-02T21:32:35;16.40;67.90
40636;DHT22;26642;55.766;37.828;2022-09-02T21:35:22;16.40;68.00
40636;DHT22;26642;55.766;37.828;2022-09-02T21:37:53;16.40;68.00
40636;DHT22;26642;55.766;37.828;2022-09-02T21:40:53;16.40;68.00
40636;DHT22;26642;55.766;37.828;2022-09-02T21:59:59;16.40;68.30
40636;DHT22;26642;55.766;37.828;2022-09-02T22:03:15;16.40;68.20
40636;DHT22;26642;55.766;37.828;2022-09-02T22:06:14;16.40;68.20
40636;DHT22;26642;55.766;37.828;2022-09-02T22:09:40;16.40;68.30
40636;DHT22;26642;55.766;37.828;2022-09-02T22:11:59;16.40;68.20
40636;DHT22;26642;55.766;37.828;2022-09-02T22:14:28;16.40;68.30
40636;DHT22;26642;55.766;37.828;2022-09-02T22:17:01;16.40;68.20
40636;DHT22;26642;55.766;37.828;2022-09-02T22:19:32;16.40;68.20
40636;DHT22;26642;55.766;37.828;2022-09-02T22:22:20;16.40;68.10
40636;DHT22;26642;55.766;37.828;2022-09-02T22:24:50;16.40;67.90
40636;DHT22;26642;55.766;37.828;2022-09-02T22:32:46;16.40;67.90
40636;DHT22;26642;55.766;37.828;2022-09-02T22:35:35;16.40;67.90
40636;DHT22;26642;55.766;37.828;2022-09-02T22:38:12;16.40;67.90
40636;DHT22;26642;55.766;37.828;2022-09-02T22:40:49;16.40;67.90
40636;DHT22;26642;55.766;37.828;2022-09-02T22:43:20;16.30;67.70
40636;DHT22;26642;55.766;37.828;2022-09-02T22:45:55;16.30;67.70
40636;DHT22;26642;55.766;37.828;2022-09-02T22:48:52;16.40;67.70
40636;DHT22;26642;55.766;37.828;2022-09-02T22:51:47;16.30;67.60
40636;DHT22;26642;55.766;37.828;2022-09-02T22:54:33;16.30;67.80
40636;DHT22;26642;55.766;37.828;2022-09-02T22:57:48;16.30;67.80
40636;DHT22;26642;55.766;37.828;2022-09-02T23:02:46;16.30;67.90
40636;DHT22;26642;55.766;37.828;2022-09-02T23:08:08;16.30;68.00
40636;DHT22;26642;55.766;37.828;2022-09-02T23:10:44;16.30;68.10
40636;DHT22;26642;55.766;37.828;2022-09-02T23:13:40;16.40;68.30
40636;DHT22;26642;55.766;37.828;2022-09-02T23:19:16;16.30;68.40
40636;DHT22;26642;55.766;37.828;2022-09-02T23:24:31;16.40;68.10
40636;DHT22;26642;55.766;37.828;2022-09-02T23:27:08;16.40;68.20
40636;DHT22;26642;55.766;37.828;2022-09-02T23:29:40;16.30;68.00
40636;DHT22;26642;55.766;37.828;2022-09-02T23:42:40;16.40;68.20
40636;DHT22;26642;55.766;37.828;2022-09-02T23:45:21;16.40;68.10
